Terminal Aerodrome Forecast
Issued by NWS Memphis, TN

Home | Current Version | Previous Version | Text Only | Print | Product List | Glossary On
Versions: 1 2 3 4 5 6 7 8 9 10 11 12
000
FTUS44 KMEG 281746
TAFMKL
TAF
KMKL 281746Z 2818/2918 01006KT P6SM VCSH OVC008
     FM281900 36006KT P6SM VCSH BKN010 OVC015
     FM290100 01004KT P6SM OVC005
     FM291600 03005KT P6SM OVC020=

USA.gov is the U.S. government's official web portal to all federal, state and local government web resources and services.